Historyczne dane pomiarowe

Dodano dane terminowe – wersja testowa.

Dane z okresu 1951-2019

Wersja bazy: 1.34 [2019-03-16, lista zmian], aktualizacja planowana na 2019-04-15

Dane meteo z obszaru Polski uzyskane na podstawie danych udostępnionych przez Instytut Meteorologii i Gospodarki Wodnej – Państwowy Instytut Badawczy.

 

Wybierz Datę:    

       

TemperaturaWilgotnośćWiatrCiśnienieOpadyŚniegCzas trwania zjawisk
 Stacja t tx tn tng RH VA  wxwx mslp ppp RRR   cm mm wxwxwxwxwxwxwx
2010-07-16 28.0 34.9 22.8 19.6-- 2.0 1.3---- 0.0------------
2010-07-17 29.0 35.1 23.0 19.5-- 1.3 3.0---- 0.0------------
2010-07-18 24.4 31.5 21.9 20.6-- 5.7 4.3---- 6.4------------
2010-07-19 20.7 24.0 17.7 17.6-- 7.7 2.3---- 0.0------------
2010-07-20 22.8 27.2 18.9 18.5-- 7.0 2.0---- 0.0------------
2010-07-21 25.6 32.6 19.4 16.4-- 2.7 2.0---- 0.0------------
2010-07-22 27.8 34.4 20.8 19.2-- 1.0 2.7---- 0.0------------
2010-07-23 27.6 34.6 22.0 19.0-- 0.7 3.3---- 0.0------------
2010-07-24 23.3 28.3 20.4 19.7-- 3.3 4.0---- 1.1------------
2010-07-25 17.5 20.4 15.5 15.4-- 7.7 2.7---- 12.4------------
2010-07-26 15.1 18.5 13.4 13.2-- 8.0 3.0---- 11.7------------
2010-07-27 16.3 17.9 14.6 14.6-- 8.0 3.0---- 12.0------------
2010-07-28 17.5 18.6 17.0 16.9-- 8.0 2.0---- 7.5------------
2010-07-29 18.2 22.8 14.6 14.4-- 6.3 3.3---- 3.7------------
2010-07-30 19.8 26.0 14.7 12.5-- 6.7 3.0---- 1.2------------
2010-07-31 20.2 24.5 16.6 15.1-- 2.3 1.0---- 11.4------------
2010-08-01 22.5 28.0 17.7 16.5-- 1.3 1.7---- 0.0------------
2010-08-02 23.9 29.6 17.6 15.2-- 3.0 1.3---- 0.0------------
2010-08-03 23.7 30.9 19.6 17.8-- 5.7 2.7---- 25.4------------
2010-08-04 19.0 22.1 16.4 16.3-- 8.0 2.3---- 0.0------------
2010-08-05 20.6 25.9 15.2 13.4-- 5.7 1.7---- 0.1------------
2010-08-06 21.4 29.4 18.1 16.1-- 7.3 4.3---- 43.9------------
2010-08-07 22.4 27.2 18.0 16.9-- 5.3 1.3---- 0.4------------
2010-08-08 20.7 24.7 17.8 16.7-- 2.7 3.7---- 0.0------------
2010-08-09 20.7 26.4 14.9 12.8-- 3.0 1.7---- 0.0------------
2010-08-10 20.5 26.2 16.8 14.5-- 3.7 1.0---- 0.5------------
2010-08-11 22.1 28.4 16.4 13.7-- 1.7 1.3---- 0.0------------
2010-08-12 23.7 30.0 17.7 15.3-- 1.7 2.0---- 0.0------------
2010-08-13 24.4 30.6 19.8 16.8-- 6.3 1.7---- 0.1------------
2010-08-14 26.0 32.0 20.6 17.2-- 1.3 2.3---- 0.0------------
206.8 ms

 

Źródłem pochodzenia danych jest Instytut Meteorologii i Gospodarki Wodnej – Państwowy Instytut Badawczy. Dane Instytutu Meteorologii i Gospodarki Wodnej – Państwowego Instytutu Badawczego zostały przetworzone.

Dane źródłowe można odnaleźć na stronie https://dane.imgw.pl